createdAt,value
2022-10-31T00:01:29.966Z,11.24
2022-10-31T00:03:59.151Z,11.20
2022-10-31T00:06:34.201Z,11.39
2022-10-31T00:09:05.993Z,11.23
2022-10-31T00:11:33.926Z,11.20
2022-10-31T00:14:02.285Z,11.21
2022-10-31T00:16:31.511Z,11.06
2022-10-31T00:19:02.204Z,11.02
2022-10-31T00:21:31.422Z,10.89
2022-10-31T00:23:59.898Z,10.92
2022-10-31T00:26:29.088Z,10.92
2022-10-31T00:28:56.926Z,11.14
2022-10-31T00:31:24.743Z,11.16
2022-10-31T00:33:52.689Z,11.13
2022-10-31T00:36:22.350Z,11.05
2022-10-31T00:38:51.039Z,11.06
2022-10-31T00:41:19.922Z,11.01
2022-10-31T00:43:48.250Z,10.94
2022-10-31T00:46:16.428Z,10.87
2022-10-31T00:48:44.520Z,10.76
2022-10-31T00:51:12.723Z,10.79
2022-10-31T00:53:42.063Z,10.78
2022-10-31T00:56:10.014Z,10.79
2022-10-31T00:58:37.959Z,10.90
2022-10-31T01:01:08.665Z,10.98
2022-10-31T01:03:36.779Z,11.07
2022-10-31T01:06:07.869Z,10.92
2022-10-31T01:08:36.382Z,10.93
2022-10-31T01:11:09.320Z,10.99
2022-10-31T01:13:37.415Z,10.89
2022-10-31T01:16:07.368Z,10.85
2022-10-31T01:18:36.216Z,10.75
2022-10-31T01:21:06.781Z,10.80
2022-10-31T01:23:35.613Z,10.87
2022-10-31T01:26:10.998Z,10.93
2022-10-31T01:28:41.152Z,11.05
2022-10-31T01:31:10.772Z,11.06
2022-10-31T01:33:39.513Z,11.00
2022-10-31T01:36:15.988Z,10.98
2022-10-31T01:38:44.376Z,10.87
2022-10-31T01:41:15.722Z,11.00
2022-10-31T01:43:53.193Z,10.93
2022-10-31T01:46:25.257Z,10.95
2022-10-31T01:48:56.756Z,10.89
2022-10-31T01:51:30.341Z,10.87
2022-10-31T01:54:03.268Z,11.01
2022-10-31T01:56:35.158Z,10.96
2022-10-31T01:59:06.196Z,10.85
2022-10-31T02:01:34.078Z,10.74
2022-10-31T02:04:02.129Z,10.67
2022-10-31T02:06:37.474Z,10.77
2022-10-31T02:09:07.211Z,10.74
2022-10-31T02:11:38.454Z,10.73
2022-10-31T02:14:07.145Z,10.77
2022-10-31T02:16:35.232Z,10.80
2022-10-31T02:19:04.555Z,10.67
2022-10-31T02:21:42.398Z,10.66
2022-10-31T02:24:36.468Z,10.57
2022-10-31T02:27:13.588Z,10.64
2022-10-31T02:30:06.548Z,10.53
2022-10-31T02:32:58.514Z,10.30
2022-10-31T02:35:39.678Z,10.36
2022-10-31T02:38:18.808Z,10.39
2022-10-31T02:40:53.376Z,10.38
2022-10-31T02:43:29.167Z,10.45
2022-10-31T02:46:04.222Z,10.42
2022-10-31T02:48:37.278Z,10.32
2022-10-31T02:51:07.908Z,10.42
2022-10-31T02:53:36.613Z,10.27
2022-10-31T02:56:09.258Z,10.29
2022-10-31T02:58:42.331Z,10.38
2022-10-31T03:01:35.296Z,10.25
2022-10-31T03:04:34.471Z,10.05
2022-10-31T03:07:10.189Z,10.07
2022-10-31T03:09:49.054Z,10.07
2022-10-31T03:12:24.488Z,10.14
2022-10-31T03:15:00.469Z,10.02
2022-10-31T03:17:36.143Z,9.83
2022-10-31T03:20:08.746Z,9.63
2022-10-31T03:22:40.094Z,9.61
2022-10-31T03:25:09.629Z,9.62
2022-10-31T03:27:41.221Z,9.86
2022-10-31T03:30:10.556Z,9.86
2022-10-31T03:32:43.558Z,9.88
2022-10-31T03:35:16.259Z,9.91
2022-10-31T03:37:44.881Z,9.83
2022-10-31T03:40:14.832Z,9.81
2022-10-31T03:42:45.582Z,9.75
2022-10-31T03:45:16.994Z,9.60
2022-10-31T03:47:46.435Z,9.66
2022-10-31T03:50:17.486Z,9.49
2022-10-31T03:52:50.026Z,9.28
2022-10-31T03:55:21.482Z,9.17
2022-10-31T03:57:58.379Z,9.22
2022-10-31T04:00:26.704Z,9.19
2022-10-31T04:03:01.009Z,9.32
2022-10-31T04:05:33.061Z,9.38
2022-10-31T04:08:03.142Z,9.27
2022-10-31T04:10:33.289Z,9.31
2022-10-31T04:13:07.871Z,9.49
2022-10-31T04:15:39.099Z,9.55
2022-10-31T04:18:07.912Z,9.75
2022-10-31T04:20:38.810Z,9.56
2022-10-31T04:23:14.596Z,9.51
2022-10-31T04:25:44.159Z,9.38
2022-10-31T04:28:13.673Z,9.28
2022-10-31T04:30:41.567Z,9.53
2022-10-31T04:33:09.558Z,9.53
2022-10-31T04:35:39.100Z,9.50
2022-10-31T04:38:07.925Z,9.46
2022-10-31T04:40:36.821Z,9.34
2022-10-31T04:43:04.968Z,9.26
2022-10-31T04:45:32.826Z,9.15
2022-10-31T04:48:00.928Z,9.16
2022-10-31T04:50:28.958Z,8.91
2022-10-31T04:52:58.157Z,8.74
2022-10-31T04:55:26.088Z,8.65
2022-10-31T04:57:53.988Z,8.47
2022-10-31T05:00:26.041Z,8.36
2022-10-31T05:02:56.221Z,8.27
2022-10-31T05:05:26.262Z,8.33
2022-10-31T05:07:55.096Z,8.27
2022-10-31T05:10:26.981Z,8.12
2022-10-31T05:12:56.922Z,8.05
2022-10-31T05:15:26.430Z,8.00
2022-10-31T05:17:55.941Z,7.91
2022-10-31T05:20:27.216Z,7.83
2022-10-31T05:22:56.596Z,7.75
2022-10-31T05:25:28.492Z,7.80
2022-10-31T05:27:58.054Z,7.83
2022-10-31T05:30:28.519Z,7.81
2022-10-31T05:32:57.365Z,7.70
2022-10-31T05:35:27.424Z,7.64
2022-10-31T05:37:55.501Z,7.71
2022-10-31T05:40:26.525Z,7.57
2022-10-31T05:42:59.581Z,7.73
2022-10-31T05:45:27.994Z,7.76
2022-10-31T05:48:04.272Z,7.69
2022-10-31T05:50:34.687Z,7.95
2022-10-31T05:53:03.977Z,7.99
2022-10-31T05:55:34.025Z,7.91
2022-10-31T05:58:07.435Z,7.82
2022-10-31T06:00:35.993Z,7.92
2022-10-31T06:03:06.245Z,7.90
2022-10-31T06:05:35.289Z,8.08
2022-10-31T06:08:06.768Z,7.99
2022-10-31T06:10:45.403Z,7.94
2022-10-31T06:13:14.331Z,7.89
2022-10-31T06:15:43.752Z,7.80
2022-10-31T06:18:12.992Z,7.77
2022-10-31T06:20:41.143Z,7.66
2022-10-31T06:23:09.118Z,7.72
2022-10-31T06:25:37.610Z,7.56
2022-10-31T06:28:07.194Z,7.52
2022-10-31T06:30:35.407Z,7.52
2022-10-31T06:33:11.787Z,7.79
2022-10-31T06:35:40.650Z,7.86
2022-10-31T06:38:09.968Z,7.80
2022-10-31T06:40:38.753Z,7.71
2022-10-31T06:43:08.145Z,7.70
2022-10-31T06:45:36.547Z,7.58
2022-10-31T06:48:21.565Z,7.48
2022-10-31T06:50:49.865Z,7.46
2022-10-31T06:53:17.829Z,7.55
2022-10-31T06:55:45.788Z,7.62
2022-10-31T06:58:15.154Z,7.72
2022-10-31T07:00:43.379Z,7.78
2022-10-31T07:03:13.709Z,7.86
2022-10-31T07:05:42.426Z,7.90
2022-10-31T07:08:12.570Z,8.03
2022-10-31T07:10:42.872Z,8.06
2022-10-31T07:13:15.508Z,8.11
2022-10-31T07:15:45.120Z,8.16
2022-10-31T07:18:14.160Z,8.07
2022-10-31T07:20:43.232Z,8.29
2022-10-31T07:23:13.100Z,8.32
2022-10-31T07:25:42.429Z,8.46
2022-10-31T07:28:13.321Z,8.59
2022-10-31T07:30:42.671Z,8.93
2022-10-31T07:33:10.659Z,8.94
2022-10-31T07:35:38.690Z,8.98
2022-10-31T07:38:10.903Z,9.21
2022-10-31T07:40:38.953Z,9.30
2022-10-31T07:43:11.654Z,9.38
2022-10-31T07:45:43.756Z,9.47
2022-10-31T07:48:14.534Z,9.55
2022-10-31T07:50:44.369Z,9.62
2022-10-31T07:53:15.077Z,9.58
2022-10-31T07:55:44.023Z,9.68
2022-10-31T07:58:14.648Z,9.73
2022-10-31T08:00:45.619Z,9.77
2022-10-31T08:03:16.837Z,9.84
2022-10-31T08:05:46.810Z,9.91
2022-10-31T08:08:15.640Z,9.95
2022-10-31T08:10:43.969Z,9.98
2022-10-31T08:13:14.682Z,10.18
2022-10-31T08:15:43.998Z,10.23
2022-10-31T08:18:14.901Z,10.36
2022-10-31T08:20:43.518Z,10.49
2022-10-31T08:23:12.907Z,10.67
2022-10-31T08:25:40.820Z,10.75
2022-10-31T08:28:09.223Z,10.72
2022-10-31T08:30:38.987Z,11.13
2022-10-31T08:33:12.154Z,11.88
2022-10-31T08:35:40.126Z,12.43
2022-10-31T08:38:08.738Z,12.34
2022-10-31T08:40:37.955Z,12.66
2022-10-31T08:43:09.955Z,12.91
2022-10-31T08:45:37.924Z,13.01
2022-10-31T08:48:13.367Z,12.75
2022-10-31T08:50:42.157Z,12.40
2022-10-31T08:53:12.832Z,12.49
2022-10-31T08:55:44.570Z,12.47
2022-10-31T08:58:16.831Z,12.71
2022-10-31T09:00:45.981Z,12.65
2022-10-31T09:03:17.453Z,12.42
2022-10-31T09:05:45.425Z,12.43
2022-10-31T09:08:16.575Z,12.60
2022-10-31T09:10:48.130Z,12.94
2022-10-31T09:13:18.219Z,13.01
2022-10-31T09:15:48.759Z,13.02
2022-10-31T09:18:20.235Z,13.28
2022-10-31T09:20:49.602Z,13.96
2022-10-31T09:23:19.211Z,14.14
2022-10-31T09:25:50.617Z,14.00
2022-10-31T09:28:22.264Z,14.09
2022-10-31T09:30:51.713Z,13.91
2022-10-31T09:33:21.295Z,14.55
2022-10-31T09:35:49.410Z,14.21
2022-10-31T09:38:20.061Z,13.98
2022-10-31T09:40:50.019Z,13.74
2022-10-31T09:43:26.898Z,13.74
2022-10-31T09:46:03.485Z,13.75
2022-10-31T09:48:54.962Z,13.40
2022-10-31T09:51:30.476Z,13.24
2022-10-31T09:54:04.148Z,13.56
2022-10-31T09:56:35.814Z,13.81
2022-10-31T09:59:06.981Z,13.88
2022-10-31T10:01:48.197Z,13.98
2022-10-31T10:04:35.441Z,14.29
2022-10-31T10:07:07.803Z,14.58
2022-10-31T10:09:35.733Z,14.37
2022-10-31T10:12:16.118Z,14.56
2022-10-31T10:14:56.435Z,14.53
2022-10-31T10:17:34.370Z,14.25
2022-10-31T10:20:24.330Z,14.04
2022-10-31T10:23:00.633Z,14.18
2022-10-31T10:25:37.066Z,14.08
2022-10-31T10:28:17.067Z,14.10
2022-10-31T10:31:02.054Z,14.52
2022-10-31T10:33:33.979Z,14.47
2022-10-31T10:36:07.433Z,14.19
2022-10-31T10:38:41.185Z,14.23
2022-10-31T10:41:17.100Z,14.31
2022-10-31T10:43:45.034Z,14.63
2022-10-31T10:46:38.981Z,15.05
2022-10-31T10:49:17.694Z,15.62
2022-10-31T10:52:07.046Z,16.14
2022-10-31T10:54:57.031Z,16.38
2022-10-31T10:57:33.497Z,15.62
2022-10-31T11:00:05.081Z,15.55
2022-10-31T11:02:34.769Z,15.58
2022-10-31T11:05:05.116Z,15.58
2022-10-31T11:07:43.149Z,15.56
2022-10-31T11:10:18.830Z,15.49
2022-10-31T11:13:01.137Z,15.57
2022-10-31T11:15:29.968Z,15.43
2022-10-31T11:17:58.672Z,15.46
2022-10-31T11:20:35.468Z,15.52
2022-10-31T11:23:20.822Z,15.59
2022-10-31T11:25:57.099Z,15.90
2022-10-31T11:28:26.892Z,15.84
2022-10-31T11:30:58.172Z,15.76
2022-10-31T11:33:32.987Z,16.11
2022-10-31T11:36:03.306Z,16.31
2022-10-31T11:38:36.866Z,16.28
2022-10-31T11:41:15.518Z,16.58
2022-10-31T11:43:52.989Z,17.02
2022-10-31T11:46:25.155Z,17.21
2022-10-31T11:48:57.663Z,17.26
2022-10-31T11:51:28.980Z,16.78
2022-10-31T11:54:03.569Z,17.37
2022-10-31T11:56:47.259Z,17.16
2022-10-31T11:59:23.404Z,16.92
2022-10-31T12:01:56.920Z,16.83
2022-10-31T12:04:33.844Z,16.67
2022-10-31T12:07:02.943Z,16.53
2022-10-31T12:09:35.889Z,16.61
2022-10-31T12:12:26.338Z,16.74
2022-10-31T12:15:14.431Z,16.87
2022-10-31T12:17:50.753Z,16.39
2022-10-31T12:20:25.636Z,16.21
2022-10-31T12:23:04.434Z,16.36
2022-10-31T12:25:42.535Z,16.31
2022-10-31T12:28:39.991Z,15.86
2022-10-31T12:31:26.715Z,15.71
2022-10-31T12:34:04.304Z,16.02
2022-10-31T12:36:43.569Z,15.98
2022-10-31T12:39:35.829Z,16.05
2022-10-31T12:42:17.039Z,16.01
2022-10-31T12:45:05.731Z,15.96
2022-10-31T12:47:55.517Z,16.42
2022-10-31T12:50:36.418Z,16.54
2022-10-31T12:55:58.235Z,16.43
2022-10-31T12:58:32.580Z,16.73
2022-10-31T13:01:10.553Z,16.65
2022-10-31T13:03:48.450Z,16.22
2022-10-31T13:06:24.190Z,16.11
2022-10-31T13:08:55.744Z,16.97
2022-10-31T13:11:28.397Z,17.57
2022-10-31T13:14:07.529Z,17.74
2022-10-31T13:16:39.045Z,17.79
2022-10-31T13:19:15.142Z,17.59
2022-10-31T13:21:52.674Z,17.35
2022-10-31T13:24:24.495Z,17.27
2022-10-31T13:26:55.398Z,17.67
2022-10-31T13:29:31.829Z,17.78
2022-10-31T13:32:02.529Z,18.04
2022-10-31T13:34:36.414Z,18.10
2022-10-31T13:37:16.452Z,18.43
2022-10-31T13:40:00.951Z,18.21
2022-10-31T13:42:42.951Z,18.19
2022-10-31T13:45:17.526Z,17.30
2022-10-31T13:47:45.747Z,17.23
2022-10-31T13:50:25.735Z,16.68
2022-10-31T13:52:53.867Z,17.43
2022-10-31T13:55:38.337Z,17.05
2022-10-31T13:58:18.878Z,16.70
2022-10-31T14:00:48.880Z,16.40
2022-10-31T14:03:36.262Z,16.33
2022-10-31T14:06:12.117Z,16.03
2022-10-31T14:08:43.529Z,15.98
2022-10-31T14:11:24.094Z,16.05
2022-10-31T14:13:55.079Z,15.93
2022-10-31T14:16:28.150Z,15.95
2022-10-31T14:19:02.418Z,15.91
2022-10-31T14:21:36.067Z,15.79
2022-10-31T14:24:14.783Z,15.97
2022-10-31T14:27:05.070Z,16.18
2022-10-31T14:29:34.135Z,16.10
2022-10-31T14:32:11.924Z,15.97
2022-10-31T14:34:42.838Z,15.95
2022-10-31T14:37:44.866Z,15.90
2022-10-31T14:40:24.853Z,16.00
2022-10-31T14:43:18.570Z,15.91
2022-10-31T14:45:57.287Z,16.04
2022-10-31T14:48:52.164Z,15.98
2022-10-31T14:52:00.182Z,15.72
2022-10-31T14:54:35.013Z,15.59
2022-10-31T14:57:07.061Z,15.40
2022-10-31T14:59:39.033Z,15.24
2022-10-31T15:02:16.225Z,15.22
2022-10-31T15:04:48.183Z,15.07
2022-10-31T15:07:24.472Z,15.03
2022-10-31T15:10:01.372Z,14.96
2022-10-31T15:12:31.457Z,14.95
2022-10-31T15:15:00.309Z,14.89
2022-10-31T15:17:28.402Z,14.88
2022-10-31T15:19:58.470Z,14.84
2022-10-31T15:22:34.016Z,14.80
2022-10-31T15:25:02.149Z,14.80
2022-10-31T15:27:31.127Z,14.81
2022-10-31T15:29:59.130Z,14.77
2022-10-31T15:32:29.087Z,14.72
2022-10-31T15:34:58.781Z,14.66
2022-10-31T15:37:28.328Z,14.58
2022-10-31T15:39:56.294Z,14.54
2022-10-31T15:42:29.210Z,14.49
2022-10-31T15:45:02.569Z,14.41
2022-10-31T15:47:35.625Z,14.29
2022-10-31T15:50:13.782Z,14.28
2022-10-31T15:52:48.042Z,14.02
2022-10-31T15:55:21.925Z,14.00
2022-10-31T15:57:53.659Z,13.94
2022-10-31T16:00:28.394Z,14.07
2022-10-31T16:03:22.340Z,13.98
2022-10-31T16:05:53.721Z,13.86
2022-10-31T16:08:35.359Z,13.92
2022-10-31T16:11:22.580Z,13.90
2022-10-31T16:14:00.246Z,13.83
2022-10-31T16:16:35.317Z,13.83
2022-10-31T16:19:06.728Z,13.80
2022-10-31T16:21:39.319Z,13.84
2022-10-31T16:24:17.733Z,13.75
2022-10-31T16:26:51.395Z,13.76
2022-10-31T16:29:41.500Z,13.65
2022-10-31T16:32:32.324Z,13.56
2022-10-31T16:35:03.253Z,13.49
2022-10-31T16:37:33.771Z,13.51
2022-10-31T16:40:03.003Z,13.51
2022-10-31T16:42:31.114Z,13.47
2022-10-31T16:44:59.305Z,13.50
2022-10-31T16:47:28.649Z,13.46
2022-10-31T16:50:01.168Z,13.47
2022-10-31T16:52:38.194Z,13.44
2022-10-31T16:55:12.850Z,13.54
2022-10-31T16:57:43.193Z,13.57
2022-10-31T17:00:22.742Z,13.55
2022-10-31T17:02:52.604Z,13.60
2022-10-31T17:05:22.699Z,13.52
2022-10-31T17:07:53.982Z,13.53
2022-10-31T17:10:24.566Z,13.50
2022-10-31T17:13:00.023Z,13.48
2022-10-31T17:15:39.170Z,13.45
2022-10-31T17:18:08.149Z,13.46
2022-10-31T17:20:37.397Z,13.45
2022-10-31T17:23:05.587Z,13.44
2022-10-31T17:25:36.301Z,13.44
2022-10-31T17:28:04.852Z,13.42
2022-10-31T17:30:33.967Z,13.47
2022-10-31T17:33:04.183Z,13.47
2022-10-31T17:35:32.171Z,13.44
2022-10-31T17:38:00.321Z,13.39
2022-10-31T17:40:28.310Z,13.44
2022-10-31T17:42:59.361Z,13.45
2022-10-31T17:45:28.793Z,13.45
2022-10-31T17:47:57.062Z,13.49
2022-10-31T17:50:27.144Z,13.48
2022-10-31T17:53:01.087Z,13.43
2022-10-31T17:55:32.928Z,13.38
2022-10-31T17:58:06.811Z,13.48
2022-10-31T18:00:36.005Z,13.50
2022-10-31T18:03:06.922Z,13.33
2022-10-31T18:05:36.398Z,13.43
2022-10-31T18:08:07.631Z,13.48
2022-10-31T18:10:37.165Z,13.46
2022-10-31T18:13:07.951Z,13.48
2022-10-31T18:15:42.460Z,13.48
2022-10-31T18:18:11.051Z,13.41
2022-10-31T18:20:39.174Z,13.33
2022-10-31T18:23:15.283Z,13.37
2022-10-31T18:25:49.748Z,13.38
2022-10-31T18:28:20.651Z,13.27
2022-10-31T18:30:50.536Z,13.25
2022-10-31T18:33:18.629Z,13.05
2022-10-31T18:35:46.887Z,13.11
2022-10-31T18:38:22.776Z,12.95
2022-10-31T18:40:53.279Z,12.85
2022-10-31T18:43:26.013Z,12.82
2022-10-31T18:46:03.853Z,12.86
2022-10-31T18:48:45.952Z,13.04
2022-10-31T18:51:19.964Z,12.96
2022-10-31T18:53:53.964Z,13.11
2022-10-31T18:56:26.808Z,13.16
2022-10-31T18:59:05.269Z,13.14
2022-10-31T19:01:46.954Z,12.90
2022-10-31T19:04:23.243Z,12.92
2022-10-31T19:07:02.085Z,12.86
2022-10-31T19:09:39.452Z,12.86
2022-10-31T19:12:22.371Z,12.97
2022-10-31T19:18:46.290Z,12.67
2022-10-31T19:21:18.662Z,12.72
2022-10-31T19:23:48.246Z,12.68
2022-10-31T19:26:31.139Z,12.61
2022-10-31T19:28:59.130Z,12.47
2022-10-31T19:31:26.929Z,12.62
2022-10-31T19:33:56.227Z,12.59
2022-10-31T19:36:24.952Z,12.58
2022-10-31T19:38:53.798Z,12.72
2022-10-31T19:41:23.376Z,12.75
2022-10-31T19:43:52.301Z,12.73
2022-10-31T19:46:40.476Z,12.64
2022-10-31T19:49:12.988Z,12.81
2022-10-31T19:51:41.906Z,12.89
2022-10-31T19:54:09.799Z,12.73
2022-10-31T19:56:37.557Z,12.83
2022-10-31T19:59:05.519Z,12.79
2022-10-31T20:01:33.419Z,12.75
2022-10-31T20:04:01.482Z,12.62
2022-10-31T20:06:32.945Z,12.65
2022-10-31T20:09:09.692Z,12.72
2022-10-31T20:11:38.969Z,12.92
2022-10-31T20:14:12.749Z,12.99
2022-10-31T20:16:40.955Z,12.98
2022-10-31T20:19:10.240Z,12.98
2022-10-31T20:21:41.367Z,13.09
2022-10-31T20:24:12.373Z,12.93
2022-10-31T20:26:42.309Z,13.02
2022-10-31T20:29:15.937Z,13.02
2022-10-31T20:31:45.197Z,12.96
2022-10-31T20:34:13.106Z,12.97
2022-10-31T20:36:43.647Z,12.99
2022-10-31T20:39:11.830Z,12.98
2022-10-31T20:41:40.262Z,13.04
2022-10-31T20:44:08.247Z,13.07
2022-10-31T20:46:36.223Z,13.01
2022-10-31T20:49:04.325Z,12.89
2022-10-31T20:51:32.771Z,12.89
2022-10-31T20:54:02.263Z,12.95
2022-10-31T20:56:30.500Z,12.92
2022-10-31T20:58:59.151Z,12.80
2022-10-31T21:01:29.200Z,12.73
2022-10-31T21:04:01.614Z,12.79
2022-10-31T21:06:30.314Z,12.82
2022-10-31T21:08:59.254Z,12.81
2022-10-31T21:11:31.104Z,12.94
2022-10-31T21:14:00.107Z,12.94
2022-10-31T21:16:31.108Z,12.96
2022-10-31T21:19:01.753Z,12.96
2022-10-31T21:21:32.880Z,12.89
2022-10-31T21:24:03.331Z,13.02
2022-10-31T21:26:34.840Z,12.96
2022-10-31T21:29:04.064Z,12.97
2022-10-31T21:31:32.175Z,12.88
2022-10-31T21:34:00.450Z,12.86
2022-10-31T21:36:29.005Z,12.89
2022-10-31T21:38:59.613Z,12.72
2022-10-31T21:41:28.112Z,12.62
2022-10-31T21:44:00.501Z,12.68
2022-10-31T21:46:32.826Z,12.74
2022-10-31T21:49:03.196Z,12.67
2022-10-31T21:51:34.849Z,12.73
2022-10-31T21:54:20.985Z,12.63
2022-10-31T21:56:49.210Z,12.66
2022-10-31T21:59:18.531Z,12.59
2022-10-31T22:01:46.594Z,12.57
2022-10-31T22:04:15.377Z,12.60
2022-10-31T22:06:43.598Z,12.62
2022-10-31T22:09:13.970Z,12.71
2022-10-31T22:11:42.659Z,12.51
2022-10-31T22:14:13.530Z,12.49
2022-10-31T22:16:43.570Z,12.55
2022-10-31T22:19:13.347Z,12.35
2022-10-31T22:21:43.125Z,12.54
2022-10-31T22:24:11.446Z,12.50
2022-10-31T22:26:39.919Z,12.47
2022-10-31T22:29:11.105Z,12.60
2022-10-31T22:31:40.677Z,12.35
2022-10-31T22:34:10.706Z,12.53
2022-10-31T22:36:39.658Z,12.50
2022-10-31T22:39:08.172Z,12.61
2022-10-31T22:41:37.213Z,12.76
2022-10-31T22:44:06.254Z,12.66
2022-10-31T22:46:36.435Z,12.70
2022-10-31T22:49:06.629Z,12.73
2022-10-31T22:51:39.310Z,12.75
2022-10-31T22:54:10.565Z,12.72
2022-10-31T22:56:38.976Z,12.87
2022-10-31T22:59:06.866Z,12.76
2022-10-31T23:01:35.693Z,12.86
2022-10-31T23:04:03.698Z,13.07
2022-10-31T23:06:33.748Z,13.15
2022-10-31T23:09:07.943Z,13.10
2022-10-31T23:11:38.651Z,13.05
2022-10-31T23:14:10.552Z,13.23
2022-10-31T23:16:42.412Z,13.50
2022-10-31T23:19:11.362Z,13.36
2022-10-31T23:21:57.536Z,13.43
2022-10-31T23:24:36.890Z,13.41
2022-10-31T23:27:11.268Z,13.40
2022-10-31T23:29:44.979Z,13.40
2022-10-31T23:32:20.459Z,13.45
2022-10-31T23:34:52.284Z,13.51
2022-10-31T23:37:22.179Z,13.45
2022-10-31T23:39:51.501Z,13.40
2022-10-31T23:42:20.036Z,13.32
2022-10-31T23:44:48.545Z,13.28
2022-10-31T23:47:16.971Z,13.49
2022-10-31T23:49:45.041Z,13.64
2022-10-31T23:52:13.966Z,13.53
2022-10-31T23:54:42.051Z,13.49
2022-10-31T23:57:11.918Z,13.54
2022-10-31T23:59:40.126Z,13.72
